sensor_id;sensor_type;location;lat;lon;timestamp;P1;durP1;ratioP1;P2;durP2;ratioP2
19278;SDS011;9773;47.062;15.446;2024-01-27T00:01:34;1.13;;;0.77;;
19278;SDS011;9773;47.062;15.446;2024-01-27T00:04:00;0.77;;;0.77;;
19278;SDS011;9773;47.062;15.446;2024-01-27T00:06:26;0.83;;;0.73;;
19278;SDS011;9773;47.062;15.446;2024-01-27T00:08:55;0.50;;;0.50;;
19278;SDS011;9773;47.062;15.446;2024-01-27T00:11:20;0.60;;;0.60;;
19278;SDS011;9773;47.062;15.446;2024-01-27T00:13:48;0.70;;;0.70;;
19278;SDS011;9773;47.062;15.446;2024-01-27T00:16:14;0.50;;;0.50;;
19278;SDS011;9773;47.062;15.446;2024-01-27T00:18:40;0.80;;;0.80;;
19278;SDS011;9773;47.062;15.446;2024-01-27T00:21:06;0.60;;;0.60;;
19278;SDS011;9773;47.062;15.446;2024-01-27T00:23:32;0.43;;;0.43;;
19278;SDS011;9773;47.062;15.446;2024-01-27T00:25:59;1.00;;;0.70;;
19278;SDS011;9773;47.062;15.446;2024-01-27T00:28:25;0.93;;;0.77;;
19278;SDS011;9773;47.062;15.446;2024-01-27T00:30:54;0.70;;;0.70;;
19278;SDS011;9773;47.062;15.446;2024-01-27T00:33:21;1.23;;;0.70;;
19278;SDS011;9773;47.062;15.446;2024-01-27T00:35:47;0.70;;;0.70;;
19278;SDS011;9773;47.062;15.446;2024-01-27T00:38:13;0.70;;;0.70;;
19278;SDS011;9773;47.062;15.446;2024-01-27T00:40:39;0.90;;;0.63;;
19278;SDS011;9773;47.062;15.446;2024-01-27T00:43:05;0.60;;;0.60;;
19278;SDS011;9773;47.062;15.446;2024-01-27T00:45:31;0.73;;;0.73;;
19278;SDS011;9773;47.062;15.446;2024-01-27T00:47:57;0.70;;;0.70;;
19278;SDS011;9773;47.062;15.446;2024-01-27T00:50:23;2.40;;;0.73;;
19278;SDS011;9773;47.062;15.446;2024-01-27T00:52:49;1.13;;;0.80;;
19278;SDS011;9773;47.062;15.446;2024-01-27T00:55:14;0.80;;;0.80;;
19278;SDS011;9773;47.062;15.446;2024-01-27T00:57:40;1.33;;;0.73;;
19278;SDS011;9773;47.062;15.446;2024-01-27T01:00:07;0.60;;;0.60;;
19278;SDS011;9773;47.062;15.446;2024-01-27T01:02:35;2.20;;;0.90;;
19278;SDS011;9773;47.062;15.446;2024-01-27T01:05:01;0.87;;;0.87;;
19278;SDS011;9773;47.062;15.446;2024-01-27T01:07:29;0.60;;;0.60;;
19278;SDS011;9773;47.062;15.446;2024-01-27T01:09:58;0.70;;;0.70;;
19278;SDS011;9773;47.062;15.446;2024-01-27T01:12:24;0.60;;;0.60;;
19278;SDS011;9773;47.062;15.446;2024-01-27T01:14:52;0.50;;;0.50;;
19278;SDS011;9773;47.062;15.446;2024-01-27T01:17:18;0.80;;;0.80;;
19278;SDS011;9773;47.062;15.446;2024-01-27T01:19:44;0.50;;;0.50;;
19278;SDS011;9773;47.062;15.446;2024-01-27T01:22:11;0.53;;;0.53;;
19278;SDS011;9773;47.062;15.446;2024-01-27T01:24:37;1.03;;;0.80;;
19278;SDS011;9773;47.062;15.446;2024-01-27T01:27:03;0.70;;;0.67;;
19278;SDS011;9773;47.062;15.446;2024-01-27T01:29:29;0.53;;;0.53;;
19278;SDS011;9773;47.062;15.446;2024-01-27T01:31:56;0.43;;;0.40;;
19278;SDS011;9773;47.062;15.446;2024-01-27T01:34:22;0.60;;;0.60;;
19278;SDS011;9773;47.062;15.446;2024-01-27T01:36:47;0.97;;;0.63;;
19278;SDS011;9773;47.062;15.446;2024-01-27T01:39:13;1.53;;;0.93;;
19278;SDS011;9773;47.062;15.446;2024-01-27T01:41:39;0.67;;;0.67;;
19278;SDS011;9773;47.062;15.446;2024-01-27T01:44:05;0.53;;;0.53;;
19278;SDS011;9773;47.062;15.446;2024-01-27T01:46:31;0.60;;;0.60;;
19278;SDS011;9773;47.062;15.446;2024-01-27T01:48:58;1.80;;;0.60;;
19278;SDS011;9773;47.062;15.446;2024-01-27T01:51:25;0.60;;;0.60;;
19278;SDS011;9773;47.062;15.446;2024-01-27T01:53:51;0.60;;;0.60;;
19278;SDS011;9773;47.062;15.446;2024-01-27T01:56:24;0.63;;;0.63;;
19278;SDS011;9773;47.062;15.446;2024-01-27T01:58:50;1.57;;;0.70;;
19278;SDS011;9773;47.062;15.446;2024-01-27T02:01:16;0.47;;;0.47;;
19278;SDS011;9773;47.062;15.446;2024-01-27T02:03:56;0.73;;;0.73;;
19278;SDS011;9773;47.062;15.446;2024-01-27T02:06:22;0.30;;;0.30;;
19278;SDS011;9773;47.062;15.446;2024-01-27T02:08:48;0.50;;;0.50;;
19278;SDS011;9773;47.062;15.446;2024-01-27T02:11:14;1.17;;;0.70;;
19278;SDS011;9773;47.062;15.446;2024-01-27T02:13:41;0.60;;;0.60;;
19278;SDS011;9773;47.062;15.446;2024-01-27T02:16:07;0.70;;;0.70;;
19278;SDS011;9773;47.062;15.446;2024-01-27T02:18:32;1.03;;;0.67;;
19278;SDS011;9773;47.062;15.446;2024-01-27T02:20:58;0.77;;;0.67;;
19278;SDS011;9773;47.062;15.446;2024-01-27T02:23:24;0.43;;;0.43;;
19278;SDS011;9773;47.062;15.446;2024-01-27T02:25:53;0.50;;;0.50;;
19278;SDS011;9773;47.062;15.446;2024-01-27T02:28:18;0.63;;;0.63;;
19278;SDS011;9773;47.062;15.446;2024-01-27T02:30:44;0.63;;;0.60;;
19278;SDS011;9773;47.062;15.446;2024-01-27T02:33:10;0.57;;;0.40;;
19278;SDS011;9773;47.062;15.446;2024-01-27T02:35:36;0.87;;;0.50;;
19278;SDS011;9773;47.062;15.446;2024-01-27T02:38:01;0.53;;;0.53;;
19278;SDS011;9773;47.062;15.446;2024-01-27T02:40:27;1.20;;;0.50;;
19278;SDS011;9773;47.062;15.446;2024-01-27T02:42:53;0.73;;;0.63;;
19278;SDS011;9773;47.062;15.446;2024-01-27T02:45:19;0.87;;;0.87;;
19278;SDS011;9773;47.062;15.446;2024-01-27T02:47:44;0.77;;;0.50;;
19278;SDS011;9773;47.062;15.446;2024-01-27T02:50:10;0.43;;;0.43;;
19278;SDS011;9773;47.062;15.446;2024-01-27T02:52:36;0.77;;;0.40;;
19278;SDS011;9773;47.062;15.446;2024-01-27T02:55:02;0.50;;;0.50;;
19278;SDS011;9773;47.062;15.446;2024-01-27T02:57:28;0.97;;;0.50;;
19278;SDS011;9773;47.062;15.446;2024-01-27T02:59:54;0.60;;;0.60;;
19278;SDS011;9773;47.062;15.446;2024-01-27T03:02:20;1.70;;;0.50;;
19278;SDS011;9773;47.062;15.446;2024-01-27T03:04:45;1.13;;;0.70;;
19278;SDS011;9773;47.062;15.446;2024-01-27T03:07:11;0.93;;;0.70;;
19278;SDS011;9773;47.062;15.446;2024-01-27T03:09:37;3.00;;;0.70;;
19278;SDS011;9773;47.062;15.446;2024-01-27T03:12:02;0.47;;;0.47;;
19278;SDS011;9773;47.062;15.446;2024-01-27T03:14:28;0.93;;;0.50;;
19278;SDS011;9773;47.062;15.446;2024-01-27T03:16:54;1.07;;;0.53;;
19278;SDS011;9773;47.062;15.446;2024-01-27T03:19:20;0.60;;;0.60;;
19278;SDS011;9773;47.062;15.446;2024-01-27T03:21:46;0.47;;;0.47;;
19278;SDS011;9773;47.062;15.446;2024-01-27T03:24:12;0.50;;;0.50;;
19278;SDS011;9773;47.062;15.446;2024-01-27T03:26:37;0.87;;;0.80;;
19278;SDS011;9773;47.062;15.446;2024-01-27T03:29:03;0.80;;;0.80;;
19278;SDS011;9773;47.062;15.446;2024-01-27T03:31:32;0.70;;;0.60;;
19278;SDS011;9773;47.062;15.446;2024-01-27T03:33:59;0.60;;;0.60;;
19278;SDS011;9773;47.062;15.446;2024-01-27T03:36:26;0.77;;;0.77;;
19278;SDS011;9773;47.062;15.446;2024-01-27T03:38:52;0.97;;;0.63;;
19278;SDS011;9773;47.062;15.446;2024-01-27T03:41:19;0.57;;;0.57;;
19278;SDS011;9773;47.062;15.446;2024-01-27T03:43:45;0.60;;;0.60;;
19278;SDS011;9773;47.062;15.446;2024-01-27T03:46:11;2.93;;;0.63;;
19278;SDS011;9773;47.062;15.446;2024-01-27T03:48:36;0.90;;;0.80;;
19278;SDS011;9773;47.062;15.446;2024-01-27T03:51:03;2.57;;;1.00;;
19278;SDS011;9773;47.062;15.446;2024-01-27T03:53:29;0.73;;;0.70;;
19278;SDS011;9773;47.062;15.446;2024-01-27T03:55:55;0.50;;;0.50;;
19278;SDS011;9773;47.062;15.446;2024-01-27T03:58:23;1.50;;;0.67;;
19278;SDS011;9773;47.062;15.446;2024-01-27T04:00:49;0.93;;;0.87;;
19278;SDS011;9773;47.062;15.446;2024-01-27T04:03:16;0.50;;;0.50;;
19278;SDS011;9773;47.062;15.446;2024-01-27T04:05:42;0.60;;;0.60;;
19278;SDS011;9773;47.062;15.446;2024-01-27T04:08:08;0.93;;;0.80;;
19278;SDS011;9773;47.062;15.446;2024-01-27T04:10:34;1.17;;;0.57;;
19278;SDS011;9773;47.062;15.446;2024-01-27T04:13:01;0.77;;;0.70;;
19278;SDS011;9773;47.062;15.446;2024-01-27T04:15:26;3.17;;;1.00;;
19278;SDS011;9773;47.062;15.446;2024-01-27T04:17:52;1.67;;;0.87;;
19278;SDS011;9773;47.062;15.446;2024-01-27T04:20:19;0.73;;;0.73;;
19278;SDS011;9773;47.062;15.446;2024-01-27T04:22:45;1.70;;;0.63;;
19278;SDS011;9773;47.062;15.446;2024-01-27T04:25:10;0.80;;;0.80;;
19278;SDS011;9773;47.062;15.446;2024-01-27T04:27:39;0.70;;;0.70;;
19278;SDS011;9773;47.062;15.446;2024-01-27T04:30:07;2.20;;;0.60;;
19278;SDS011;9773;47.062;15.446;2024-01-27T04:32:33;0.93;;;0.93;;
19278;SDS011;9773;47.062;15.446;2024-01-27T04:35:00;0.63;;;0.60;;
19278;SDS011;9773;47.062;15.446;2024-01-27T04:37:26;0.60;;;0.60;;
19278;SDS011;9773;47.062;15.446;2024-01-27T04:39:52;0.73;;;0.50;;
19278;SDS011;9773;47.062;15.446;2024-01-27T04:42:17;0.67;;;0.67;;
19278;SDS011;9773;47.062;15.446;2024-01-27T04:44:43;1.80;;;0.70;;
19278;SDS011;9773;47.062;15.446;2024-01-27T04:47:09;0.43;;;0.40;;
19278;SDS011;9773;47.062;15.446;2024-01-27T04:49:35;1.23;;;0.70;;
19278;SDS011;9773;47.062;15.446;2024-01-27T04:52:00;1.30;;;0.87;;
19278;SDS011;9773;47.062;15.446;2024-01-27T04:54:27;0.80;;;0.80;;
19278;SDS011;9773;47.062;15.446;2024-01-27T04:56:52;0.93;;;0.93;;
19278;SDS011;9773;47.062;15.446;2024-01-27T04:59:18;0.73;;;0.73;;
19278;SDS011;9773;47.062;15.446;2024-01-27T05:01:44;0.80;;;0.80;;
19278;SDS011;9773;47.062;15.446;2024-01-27T05:04:11;0.80;;;0.80;;
19278;SDS011;9773;47.062;15.446;2024-01-27T05:06:37;0.90;;;0.90;;
19278;SDS011;9773;47.062;15.446;2024-01-27T05:09:04;1.10;;;0.73;;
19278;SDS011;9773;47.062;15.446;2024-01-27T05:11:31;0.53;;;0.53;;
19278;SDS011;9773;47.062;15.446;2024-01-27T05:14:00;1.80;;;0.70;;
19278;SDS011;9773;47.062;15.446;2024-01-27T05:16:27;1.03;;;0.70;;
19278;SDS011;9773;47.062;15.446;2024-01-27T05:18:53;0.70;;;0.67;;
19278;SDS011;9773;47.062;15.446;2024-01-27T05:21:19;1.70;;;0.80;;
19278;SDS011;9773;47.062;15.446;2024-01-27T05:23:44;0.50;;;0.50;;
19278;SDS011;9773;47.062;15.446;2024-01-27T05:26:10;0.90;;;0.90;;
19278;SDS011;9773;47.062;15.446;2024-01-27T05:28:37;1.07;;;0.90;;
19278;SDS011;9773;47.062;15.446;2024-01-27T05:31:06;0.70;;;0.70;;
19278;SDS011;9773;47.062;15.446;2024-01-27T05:33:33;0.80;;;0.80;;
19278;SDS011;9773;47.062;15.446;2024-01-27T05:35:59;2.67;;;0.90;;
19278;SDS011;9773;47.062;15.446;2024-01-27T05:38:24;1.00;;;0.80;;
19278;SDS011;9773;47.062;15.446;2024-01-27T05:40:51;0.50;;;0.50;;
19278;SDS011;9773;47.062;15.446;2024-01-27T05:43:17;3.07;;;0.80;;
19278;SDS011;9773;47.062;15.446;2024-01-27T05:45:43;2.63;;;0.90;;
19278;SDS011;9773;47.062;15.446;2024-01-27T05:48:10;0.63;;;0.63;;
19278;SDS011;9773;47.062;15.446;2024-01-27T05:50:36;3.67;;;0.80;;
19278;SDS011;9773;47.062;15.446;2024-01-27T05:53:02;1.67;;;1.00;;
19278;SDS011;9773;47.062;15.446;2024-01-27T05:55:28;1.43;;;0.90;;
19278;SDS011;9773;47.062;15.446;2024-01-27T05:57:53;2.77;;;1.10;;
19278;SDS011;9773;47.062;15.446;2024-01-27T06:00:21;1.10;;;1.00;;
19278;SDS011;9773;47.062;15.446;2024-01-27T06:02:47;1.80;;;0.70;;
19278;SDS011;9773;47.062;15.446;2024-01-27T06:05:14;0.80;;;0.80;;
19278;SDS011;9773;47.062;15.446;2024-01-27T06:07:40;0.80;;;0.80;;
19278;SDS011;9773;47.062;15.446;2024-01-27T06:10:08;0.80;;;0.80;;
19278;SDS011;9773;47.062;15.446;2024-01-27T06:12:35;1.90;;;1.03;;
19278;SDS011;9773;47.062;15.446;2024-01-27T06:15:03;0.83;;;0.80;;
19278;SDS011;9773;47.062;15.446;2024-01-27T06:17:31;1.73;;;1.23;;
19278;SDS011;9773;47.062;15.446;2024-01-27T06:19:56;1.27;;;0.90;;
19278;SDS011;9773;47.062;15.446;2024-01-27T06:22:22;1.50;;;1.40;;
19278;SDS011;9773;47.062;15.446;2024-01-27T06:24:48;1.10;;;1.07;;
19278;SDS011;9773;47.062;15.446;2024-01-27T06:27:14;2.37;;;1.30;;
19278;SDS011;9773;47.062;15.446;2024-01-27T06:29:39;3.90;;;1.13;;
19278;SDS011;9773;47.062;15.446;2024-01-27T06:32:07;2.63;;;0.90;;
19278;SDS011;9773;47.062;15.446;2024-01-27T06:34:32;1.17;;;0.90;;
19278;SDS011;9773;47.062;15.446;2024-01-27T06:36:58;1.47;;;0.90;;
19278;SDS011;9773;47.062;15.446;2024-01-27T06:39:24;1.73;;;1.20;;
19278;SDS011;9773;47.062;15.446;2024-01-27T06:41:50;3.03;;;1.20;;
19278;SDS011;9773;47.062;15.446;2024-01-27T06:44:15;1.10;;;1.10;;
19278;SDS011;9773;47.062;15.446;2024-01-27T06:46:41;1.03;;;1.03;;
19278;SDS011;9773;47.062;15.446;2024-01-27T06:49:11;1.20;;;1.20;;
19278;SDS011;9773;47.062;15.446;2024-01-27T06:51:38;2.13;;;1.40;;
19278;SDS011;9773;47.062;15.446;2024-01-27T06:54:03;4.47;;;1.40;;
19278;SDS011;9773;47.062;15.446;2024-01-27T06:56:29;2.43;;;1.00;;
19278;SDS011;9773;47.062;15.446;2024-01-27T06:58:55;1.50;;;1.30;;
19278;SDS011;9773;47.062;15.446;2024-01-27T07:01:20;2.17;;;1.00;;
19278;SDS011;9773;47.062;15.446;2024-01-27T07:03:46;2.03;;;0.93;;
19278;SDS011;9773;47.062;15.446;2024-01-27T07:06:12;3.53;;;1.30;;
19278;SDS011;9773;47.062;15.446;2024-01-27T07:08:38;1.07;;;1.07;;
19278;SDS011;9773;47.062;15.446;2024-01-27T07:11:03;4.63;;;1.33;;
19278;SDS011;9773;47.062;15.446;2024-01-27T07:13:29;1.10;;;1.10;;
19278;SDS011;9773;47.062;15.446;2024-01-27T07:15:58;1.87;;;0.97;;
19278;SDS011;9773;47.062;15.446;2024-01-27T07:18:24;1.53;;;1.30;;
19278;SDS011;9773;47.062;15.446;2024-01-27T07:20:50;1.97;;;1.03;;
19278;SDS011;9773;47.062;15.446;2024-01-27T07:23:16;1.50;;;1.37;;
19278;SDS011;9773;47.062;15.446;2024-01-27T07:25:43;1.57;;;1.47;;
19278;SDS011;9773;47.062;15.446;2024-01-27T07:28:09;2.43;;;1.40;;
19278;SDS011;9773;47.062;15.446;2024-01-27T07:30:34;1.20;;;1.20;;
19278;SDS011;9773;47.062;15.446;2024-01-27T07:33:00;2.83;;;1.40;;
19278;SDS011;9773;47.062;15.446;2024-01-27T07:35:27;1.70;;;1.47;;
19278;SDS011;9773;47.062;15.446;2024-01-27T07:37:56;1.40;;;1.30;;
19278;SDS011;9773;47.062;15.446;2024-01-27T07:40:22;1.10;;;1.07;;
19278;SDS011;9773;47.062;15.446;2024-01-27T07:42:48;2.37;;;1.60;;
19278;SDS011;9773;47.062;15.446;2024-01-27T07:45:13;6.20;;;2.67;;
19278;SDS011;9773;47.062;15.446;2024-01-27T07:47:40;4.40;;;1.77;;
19278;SDS011;9773;47.062;15.446;2024-01-27T07:50:06;4.33;;;2.27;;
19278;SDS011;9773;47.062;15.446;2024-01-27T07:52:34;2.37;;;2.07;;
19278;SDS011;9773;47.062;15.446;2024-01-27T07:55:00;1.93;;;1.83;;
19278;SDS011;9773;47.062;15.446;2024-01-27T07:57:33;4.70;;;2.20;;
19278;SDS011;9773;47.062;15.446;2024-01-27T08:00:02;1.90;;;1.73;;
19278;SDS011;9773;47.062;15.446;2024-01-27T08:02:28;4.23;;;2.17;;
19278;SDS011;9773;47.062;15.446;2024-01-27T08:04:54;1.63;;;1.40;;
19278;SDS011;9773;47.062;15.446;2024-01-27T08:07:20;1.63;;;1.50;;
19278;SDS011;9773;47.062;15.446;2024-01-27T08:09:45;1.80;;;1.70;;
19278;SDS011;9773;47.062;15.446;2024-01-27T08:12:11;1.90;;;1.67;;
19278;SDS011;9773;47.062;15.446;2024-01-27T08:14:37;1.60;;;1.50;;
19278;SDS011;9773;47.062;15.446;2024-01-27T08:17:03;1.57;;;1.40;;
19278;SDS011;9773;47.062;15.446;2024-01-27T08:19:29;2.20;;;1.53;;
19278;SDS011;9773;47.062;15.446;2024-01-27T08:21:54;1.70;;;1.30;;
19278;SDS011;9773;47.062;15.446;2024-01-27T08:24:20;2.27;;;1.03;;
19278;SDS011;9773;47.062;15.446;2024-01-27T08:26:48;1.33;;;1.07;;
19278;SDS011;9773;47.062;15.446;2024-01-27T08:29:15;2.33;;;0.90;;
19278;SDS011;9773;47.062;15.446;2024-01-27T08:31:41;0.97;;;0.97;;
19278;SDS011;9773;47.062;15.446;2024-01-27T08:34:07;2.63;;;0.80;;
19278;SDS011;9773;47.062;15.446;2024-01-27T08:36:33;2.80;;;1.03;;
19278;SDS011;9773;47.062;15.446;2024-01-27T08:38:59;1.40;;;0.83;;
19278;SDS011;9773;47.062;15.446;2024-01-27T08:41:25;0.70;;;0.70;;
19278;SDS011;9773;47.062;15.446;2024-01-27T08:43:51;1.73;;;1.23;;
19278;SDS011;9773;47.062;15.446;2024-01-27T08:46:17;2.60;;;1.90;;
19278;SDS011;9773;47.062;15.446;2024-01-27T08:48:44;2.90;;;1.70;;
19278;SDS011;9773;47.062;15.446;2024-01-27T08:51:10;1.73;;;1.63;;
19278;SDS011;9773;47.062;15.446;2024-01-27T08:53:37;2.37;;;1.90;;
19278;SDS011;9773;47.062;15.446;2024-01-27T08:56:03;3.00;;;2.33;;
19278;SDS011;9773;47.062;15.446;2024-01-27T08:58:31;4.37;;;2.43;;
19278;SDS011;9773;47.062;15.446;2024-01-27T09:00:57;3.00;;;2.70;;
19278;SDS011;9773;47.062;15.446;2024-01-27T09:03:22;4.73;;;2.43;;
19278;SDS011;9773;47.062;15.446;2024-01-27T09:05:48;2.47;;;2.27;;
19278;SDS011;9773;47.062;15.446;2024-01-27T09:08:15;5.40;;;2.00;;
19278;SDS011;9773;47.062;15.446;2024-01-27T09:10:42;3.07;;;1.80;;
19278;SDS011;9773;47.062;15.446;2024-01-27T09:13:07;4.17;;;1.80;;
19278;SDS011;9773;47.062;15.446;2024-01-27T09:15:33;2.47;;;1.80;;
19278;SDS011;9773;47.062;15.446;2024-01-27T09:17:59;3.27;;;2.00;;
19278;SDS011;9773;47.062;15.446;2024-01-27T09:20:25;1.87;;;1.77;;
19278;SDS011;9773;47.062;15.446;2024-01-27T09:22:50;1.93;;;1.70;;
19278;SDS011;9773;47.062;15.446;2024-01-27T09:25:16;2.67;;;1.57;;
19278;SDS011;9773;47.062;15.446;2024-01-27T09:27:42;1.73;;;1.40;;
19278;SDS011;9773;47.062;15.446;2024-01-27T09:30:08;2.33;;;1.47;;
19278;SDS011;9773;47.062;15.446;2024-01-27T09:32:35;1.40;;;1.30;;
19278;SDS011;9773;47.062;15.446;2024-01-27T09:35:00;1.30;;;1.20;;
19278;SDS011;9773;47.062;15.446;2024-01-27T09:37:26;2.10;;;1.40;;
19278;SDS011;9773;47.062;15.446;2024-01-27T09:39:52;2.23;;;1.50;;
19278;SDS011;9773;47.062;15.446;2024-01-27T09:42:19;1.93;;;1.83;;
19278;SDS011;9773;47.062;15.446;2024-01-27T09:44:47;1.87;;;1.20;;
19278;SDS011;9773;47.062;15.446;2024-01-27T09:47:14;1.93;;;1.40;;
19278;SDS011;9773;47.062;15.446;2024-01-27T09:49:41;1.40;;;1.30;;
19278;SDS011;9773;47.062;15.446;2024-01-27T09:52:08;1.60;;;1.50;;
19278;SDS011;9773;47.062;15.446;2024-01-27T09:54:34;1.97;;;1.63;;
19278;SDS011;9773;47.062;15.446;2024-01-27T09:57:01;1.70;;;1.70;;
19278;SDS011;9773;47.062;15.446;2024-01-27T09:59:28;1.30;;;1.20;;
19278;SDS011;9773;47.062;15.446;2024-01-27T10:01:54;0.80;;;0.80;;
19278;SDS011;9773;47.062;15.446;2024-01-27T10:04:23;2.10;;;1.40;;
19278;SDS011;9773;47.062;15.446;2024-01-27T10:06:50;0.97;;;0.97;;
19278;SDS011;9773;47.062;15.446;2024-01-27T10:09:16;4.87;;;1.50;;
19278;SDS011;9773;47.062;15.446;2024-01-27T10:11:46;1.00;;;0.90;;
19278;SDS011;9773;47.062;15.446;2024-01-27T10:14:15;1.10;;;1.10;;
19278;SDS011;9773;47.062;15.446;2024-01-27T10:16:41;2.37;;;1.10;;
19278;SDS011;9773;47.062;15.446;2024-01-27T10:19:18;1.90;;;1.00;;
19278;SDS011;9773;47.062;15.446;2024-01-27T10:21:47;3.10;;;1.10;;
19278;SDS011;9773;47.062;15.446;2024-01-27T10:24:13;1.10;;;1.10;;
19278;SDS011;9773;47.062;15.446;2024-01-27T10:26:39;0.83;;;0.83;;
19278;SDS011;9773;47.062;15.446;2024-01-27T10:29:05;1.13;;;0.77;;
19278;SDS011;9773;47.062;15.446;2024-01-27T10:31:33;3.30;;;0.87;;
19278;SDS011;9773;47.062;15.446;2024-01-27T10:34:00;1.97;;;0.93;;
19278;SDS011;9773;47.062;15.446;2024-01-27T10:36:41;0.97;;;0.90;;
19278;SDS011;9773;47.062;15.446;2024-01-27T10:39:18;0.70;;;0.70;;
19278;SDS011;9773;47.062;15.446;2024-01-27T10:41:48;1.43;;;1.10;;
19278;SDS011;9773;47.062;15.446;2024-01-27T10:44:15;1.20;;;0.80;;
19278;SDS011;9773;47.062;15.446;2024-01-27T10:46:45;0.97;;;0.80;;
19278;SDS011;9773;47.062;15.446;2024-01-27T10:49:13;3.50;;;1.07;;
19278;SDS011;9773;47.062;15.446;2024-01-27T10:51:43;1.07;;;0.97;;
19278;SDS011;9773;47.062;15.446;2024-01-27T10:54:15;0.80;;;0.80;;
19278;SDS011;9773;47.062;15.446;2024-01-27T10:56:47;1.53;;;1.10;;
19278;SDS011;9773;47.062;15.446;2024-01-27T10:59:13;0.90;;;0.90;;
19278;SDS011;9773;47.062;15.446;2024-01-27T11:01:41;0.80;;;0.80;;
19278;SDS011;9773;47.062;15.446;2024-01-27T11:04:08;0.60;;;0.60;;
19278;SDS011;9773;47.062;15.446;2024-01-27T11:06:36;1.27;;;0.60;;
19278;SDS011;9773;47.062;15.446;2024-01-27T11:09:03;1.37;;;0.90;;
19278;SDS011;9773;47.062;15.446;2024-01-27T11:11:30;0.93;;;0.93;;
19278;SDS011;9773;47.062;15.446;2024-01-27T11:13:57;1.40;;;0.93;;
19278;SDS011;9773;47.062;15.446;2024-01-27T11:16:23;0.60;;;0.60;;
19278;SDS011;9773;47.062;15.446;2024-01-27T11:18:49;0.80;;;0.80;;
19278;SDS011;9773;47.062;15.446;2024-01-27T11:21:16;1.63;;;0.87;;
19278;SDS011;9773;47.062;15.446;2024-01-27T11:23:42;1.47;;;0.83;;
19278;SDS011;9773;47.062;15.446;2024-01-27T11:26:08;0.90;;;0.90;;
19278;SDS011;9773;47.062;15.446;2024-01-27T11:28:35;0.87;;;0.87;;
19278;SDS011;9773;47.062;15.446;2024-01-27T11:31:04;1.07;;;1.00;;
19278;SDS011;9773;47.062;15.446;2024-01-27T11:33:31;1.33;;;1.10;;
19278;SDS011;9773;47.062;15.446;2024-01-27T11:36:01;1.60;;;0.70;;
19278;SDS011;9773;47.062;15.446;2024-01-27T11:38:27;0.70;;;0.70;;
19278;SDS011;9773;47.062;15.446;2024-01-27T11:40:53;1.47;;;0.97;;
19278;SDS011;9773;47.062;15.446;2024-01-27T11:43:19;1.53;;;0.83;;
19278;SDS011;9773;47.062;15.446;2024-01-27T11:45:58;0.67;;;0.57;;
19278;SDS011;9773;47.062;15.446;2024-01-27T11:48:24;0.93;;;0.67;;
19278;SDS011;9773;47.062;15.446;2024-01-27T11:51:06;0.57;;;0.57;;
19278;SDS011;9773;47.062;15.446;2024-01-27T11:53:34;0.70;;;0.70;;
19278;SDS011;9773;47.062;15.446;2024-01-27T11:56:00;1.37;;;0.70;;
19278;SDS011;9773;47.062;15.446;2024-01-27T11:58:27;1.97;;;1.00;;
19278;SDS011;9773;47.062;15.446;2024-01-27T12:00:53;0.80;;;0.60;;
19278;SDS011;9773;47.062;15.446;2024-01-27T12:03:19;0.60;;;0.60;;
19278;SDS011;9773;47.062;15.446;2024-01-27T12:05:45;1.13;;;0.70;;
19278;SDS011;9773;47.062;15.446;2024-01-27T12:08:11;0.73;;;0.73;;
19278;SDS011;9773;47.062;15.446;2024-01-27T12:10:37;0.70;;;0.70;;
19278;SDS011;9773;47.062;15.446;2024-01-27T12:13:03;1.10;;;0.70;;
19278;SDS011;9773;47.062;15.446;2024-01-27T12:15:29;0.50;;;0.50;;
19278;SDS011;9773;47.062;15.446;2024-01-27T12:17:55;0.60;;;0.60;;
19278;SDS011;9773;47.062;15.446;2024-01-27T12:20:22;1.17;;;0.80;;
19278;SDS011;9773;47.062;15.446;2024-01-27T12:22:48;0.70;;;0.70;;
19278;SDS011;9773;47.062;15.446;2024-01-27T12:25:20;0.93;;;0.50;;
19278;SDS011;9773;47.062;15.446;2024-01-27T12:27:46;0.60;;;0.60;;
19278;SDS011;9773;47.062;15.446;2024-01-27T12:30:12;1.33;;;0.70;;
19278;SDS011;9773;47.062;15.446;2024-01-27T12:32:38;0.80;;;0.80;;
19278;SDS011;9773;47.062;15.446;2024-01-27T12:35:07;4.93;;;0.63;;
19278;SDS011;9773;47.062;15.446;2024-01-27T12:37:36;0.70;;;0.60;;
19278;SDS011;9773;47.062;15.446;2024-01-27T12:40:02;0.40;;;0.40;;
19278;SDS011;9773;47.062;15.446;2024-01-27T12:42:41;0.70;;;0.70;;
19278;SDS011;9773;47.062;15.446;2024-01-27T12:45:07;0.50;;;0.50;;
19278;SDS011;9773;47.062;15.446;2024-01-27T12:47:33;0.67;;;0.67;;
19278;SDS011;9773;47.062;15.446;2024-01-27T12:49:59;0.80;;;0.80;;
19278;SDS011;9773;47.062;15.446;2024-01-27T12:52:25;0.80;;;0.73;;
19278;SDS011;9773;47.062;15.446;2024-01-27T12:54:51;1.33;;;0.97;;
19278;SDS011;9773;47.062;15.446;2024-01-27T12:57:16;1.17;;;1.07;;
19278;SDS011;9773;47.062;15.446;2024-01-27T12:59:43;0.60;;;0.60;;
19278;SDS011;9773;47.062;15.446;2024-01-27T13:02:08;0.77;;;0.50;;
19278;SDS011;9773;47.062;15.446;2024-01-27T13:04:34;0.70;;;0.70;;
19278;SDS011;9773;47.062;15.446;2024-01-27T13:07:00;0.40;;;0.40;;
19278;SDS011;9773;47.062;15.446;2024-01-27T13:09:26;0.60;;;0.43;;
19278;SDS011;9773;47.062;15.446;2024-01-27T13:11:52;0.67;;;0.50;;
19278;SDS011;9773;47.062;15.446;2024-01-27T13:14:17;0.70;;;0.60;;
19278;SDS011;9773;47.062;15.446;2024-01-27T13:16:45;1.37;;;1.30;;
19278;SDS011;9773;47.062;15.446;2024-01-27T13:19:11;3.43;;;1.43;;
19278;SDS011;9773;47.062;15.446;2024-01-27T13:21:37;0.70;;;0.70;;
19278;SDS011;9773;47.062;15.446;2024-01-27T13:24:05;0.60;;;0.60;;
19278;SDS011;9773;47.062;15.446;2024-01-27T13:26:33;0.97;;;0.57;;
19278;SDS011;9773;47.062;15.446;2024-01-27T13:29:03;0.77;;;0.60;;
19278;SDS011;9773;47.062;15.446;2024-01-27T13:31:29;1.20;;;0.60;;
19278;SDS011;9773;47.062;15.446;2024-01-27T13:33:56;0.60;;;0.60;;
19278;SDS011;9773;47.062;15.446;2024-01-27T13:36:27;0.70;;;0.70;;
19278;SDS011;9773;47.062;15.446;2024-01-27T13:38:53;1.07;;;0.80;;
19278;SDS011;9773;47.062;15.446;2024-01-27T13:41:18;0.77;;;0.60;;
19278;SDS011;9773;47.062;15.446;2024-01-27T13:43:44;1.13;;;0.70;;
19278;SDS011;9773;47.062;15.446;2024-01-27T13:46:10;0.50;;;0.50;;
19278;SDS011;9773;47.062;15.446;2024-01-27T13:48:36;0.50;;;0.50;;
19278;SDS011;9773;47.062;15.446;2024-01-27T13:51:02;0.60;;;0.60;;
19278;SDS011;9773;47.062;15.446;2024-01-27T13:53:28;0.80;;;0.80;;
19278;SDS011;9773;47.062;15.446;2024-01-27T13:55:54;0.37;;;0.37;;
19278;SDS011;9773;47.062;15.446;2024-01-27T13:58:20;0.60;;;0.60;;
19278;SDS011;9773;47.062;15.446;2024-01-27T14:00:49;0.63;;;0.50;;
19278;SDS011;9773;47.062;15.446;2024-01-27T14:03:15;0.80;;;0.80;;
19278;SDS011;9773;47.062;15.446;2024-01-27T14:05:41;2.37;;;1.03;;
19278;SDS011;9773;47.062;15.446;2024-01-27T14:08:08;1.20;;;0.80;;
19278;SDS011;9773;47.062;15.446;2024-01-27T14:10:35;1.53;;;0.50;;
19278;SDS011;9773;47.062;15.446;2024-01-27T14:13:01;0.67;;;0.67;;
19278;SDS011;9773;47.062;15.446;2024-01-27T14:15:34;0.77;;;0.77;;
19278;SDS011;9773;47.062;15.446;2024-01-27T14:18:01;1.60;;;0.63;;
19278;SDS011;9773;47.062;15.446;2024-01-27T14:20:27;0.63;;;0.50;;
19278;SDS011;9773;47.062;15.446;2024-01-27T14:22:54;0.60;;;0.60;;
19278;SDS011;9773;47.062;15.446;2024-01-27T14:25:20;0.93;;;0.80;;
19278;SDS011;9773;47.062;15.446;2024-01-27T14:27:46;0.70;;;0.70;;
19278;SDS011;9773;47.062;15.446;2024-01-27T14:30:12;0.97;;;0.97;;
19278;SDS011;9773;47.062;15.446;2024-01-27T14:32:38;0.50;;;0.50;;
19278;SDS011;9773;47.062;15.446;2024-01-27T14:35:04;0.60;;;0.60;;
19278;SDS011;9773;47.062;15.446;2024-01-27T14:37:31;0.77;;;0.60;;
19278;SDS011;9773;47.062;15.446;2024-01-27T14:39:57;0.83;;;0.83;;
19278;SDS011;9773;47.062;15.446;2024-01-27T14:42:23;0.70;;;0.70;;
19278;SDS011;9773;47.062;15.446;2024-01-27T14:44:50;1.07;;;1.07;;